Terminal Aerodrome Forecast
Issued by NWS El Paso, TX

Home | Current Version | Previous Version | Text Only | Print | Product List | Glossary On
Versions: 1 2 3 4 5 6 7 8 9 10 11 12 13 14 15 16
000
FTUS44 KEPZ 130500
TAFELP
TAF
KELP 130540Z 1306/1406 14008KT P6SM SCT080 BKN150
     FM132200 10010KT P6SM VCTS SCT080CB SCT140 SCT250
     FM140300 06007KT P6SM FEW080 SCT140 BKN250=

USA.gov is the U.S. government's official web portal to all federal, state and local government web resources and services.